Time;durP1;ratioP1;P1;durP2;ratioP2;P2;SDS_P1;SDS_P2;PMS_P1;PMS_P2;Temp;Humidity;BMP_temperature;BMP_pressure;BME280_temperature;BME280_humidity;BME280_pressure;Samples;Min_cycle;Max_cycle;Signal;HPM_P1;HPM_P2
2022/02/23 00:00:12;;;;;;;0.73;0.40;;;;;;;4.69;100.00;96327.38;4997858;28;24447;-73
2022/02/23 00:02:39;;;;;;;0.82;0.52;;;;;;;4.68;100.00;96326.53;4997917;28;24416;-73
2022/02/23 00:05:06;;;;;;;0.73;0.30;;;;;;;4.71;100.00;96323.03;4997393;28;24436;-73
2022/02/23 00:07:33;;;;;;;1.45;0.55;;;;;;;4.72;100.00;96325.56;4997615;28;24487;-73
2022/02/23 00:09:59;;;;;;;1.67;0.40;;;;;;;4.78;100.00;96329.66;4997576;28;24424;-74
2022/02/23 00:12:27;;;;;;;1.60;0.50;;;;;;;4.78;100.00;96333.09;4997627;28;24429;-74
2022/02/23 00:14:54;;;;;;;1.80;0.98;;;;;;;4.80;100.00;96335.59;4997299;28;24448;-74
2022/02/23 00:17:25;;;;;;;2.22;0.70;;;;;;;4.80;100.00;96344.13;4997329;28;24474;-73
2022/02/23 00:19:51;;;;;;;1.30;0.80;;;;;;;4.80;100.00;96336.41;4997472;28;24439;-73
2022/02/23 00:22:17;;;;;;;1.23;0.63;;;;;;;4.79;100.00;96339.88;4997576;28;24433;-73
2022/02/23 00:24:44;;;;;;;1.77;1.10;;;;;;;4.76;100.00;96341.69;4997174;28;24549;-75
2022/02/23 00:27:10;;;;;;;1.27;0.70;;;;;;;4.82;100.00;96333.78;4997353;28;24513;-74
2022/02/23 00:29:38;;;;;;;2.37;1.10;;;;;;;4.77;100.00;96340.81;4997518;28;24420;-73
2022/02/23 00:32:06;;;;;;;1.90;1.00;;;;;;;4.80;100.00;96340.72;4997494;28;24838;-73
2022/02/23 00:34:32;;;;;;;3.15;0.75;;;;;;;4.79;100.00;96351.88;4997139;28;25040;-73
2022/02/23 00:36:59;;;;;;;0.80;0.55;;;;;;;4.83;100.00;96358.59;4997074;28;24423;-73
2022/02/23 00:39:25;;;;;;;1.27;0.77;;;;;;;4.80;100.00;96353.56;4997024;28;24993;-73
2022/02/23 00:41:52;;;;;;;1.42;0.82;;;;;;;4.83;100.00;96359.44;4997281;28;24424;-73
2022/02/23 00:44:19;;;;;;;1.83;0.90;;;;;;;4.83;100.00;96353.47;4996962;28;25025;-73
2022/02/23 00:46:47;;;;;;;0.90;0.70;;;;;;;4.86;100.00;96353.38;4996902;28;24467;-73
2022/02/23 00:49:14;;;;;;;2.70;1.17;;;;;;;4.85;100.00;96355.06;4996836;28;24422;-73
2022/02/23 00:51:40;;;;;;;1.17;0.70;;;;;;;4.91;100.00;96353.22;4997249;28;24421;-73
2022/02/23 00:54:07;;;;;;;1.33;0.73;;;;;;;4.93;100.00;96362.56;4994140;28;24440;-73
2022/02/23 00:56:34;;;;;;;1.45;0.70;;;;;;;4.92;100.00;96360.03;4993861;28;24431;-74
2022/02/23 00:59:00;;;;;;;2.00;1.10;;;;;;;4.93;100.00;96351.44;4994093;28;24804;-73
2022/02/23 01:01:26;;;;;;;2.10;0.90;;;;;;;4.95;100.00;96362.50;4993909;28;25018;-73
2022/02/23 01:03:54;;;;;;;1.57;1.10;;;;;;;4.97;100.00;96369.28;4994279;28;24445;-74
2022/02/23 01:06:22;;;;;;;2.15;1.33;;;;;;;4.98;100.00;96364.97;4993833;28;24425;-74
2022/02/23 01:08:48;;;;;;;4.10;1.40;;;;;;;4.95;100.00;96360.78;4993858;28;24527;-75
2022/02/23 01:11:16;;;;;;;3.55;1.00;;;;;;;4.99;100.00;96379.50;4993597;28;24475;-73
2022/02/23 01:13:42;;;;;;;2.53;1.02;;;;;;;5.01;100.00;96376.00;4994085;28;24466;-74
2022/02/23 01:16:09;;;;;;;3.25;1.35;;;;;;;5.04;100.00;96375.91;4993525;28;24413;-73
2022/02/23 01:18:36;;;;;;;1.90;1.23;;;;;;;5.04;100.00;96377.59;4993466;28;24476;-73
2022/02/23 01:21:04;;;;;;;2.58;1.00;;;;;;;5.10;100.00;96377.41;4993548;28;24448;-73
2022/02/23 01:23:30;;;;;;;2.80;1.13;;;;;;;5.26;100.00;96362.34;4993441;28;24440;-74
2022/02/23 01:25:56;;;;;;;1.30;0.85;;;;;;;5.33;100.00;96368.97;4993841;28;24810;-73
2022/02/23 01:28:23;;;;;;;2.05;0.80;;;;;;;5.58;100.00;96380.13;4993307;28;25046;-74
2022/02/23 01:30:49;;;;;;;1.52;0.77;;;;;;;5.70;100.00;96380.59;4993676;28;24432;-73
2022/02/23 01:33:16;;;;;;;2.42;0.80;;;;;;;5.83;100.00;96385.28;4993633;28;24464;-73
2022/02/23 01:35:42;;;;;;;4.10;0.98;;;;;;;5.90;100.00;96393.63;4993194;28;24452;-73
2022/02/23 01:38:10;;;;;;;2.33;1.10;;;;;;;5.95;100.00;96396.91;4993097;28;24425;-73
2022/02/23 01:40:37;;;;;;;1.85;0.65;;;;;;;5.94;100.00;96389.25;4992983;28;24449;-73
2022/02/23 01:43:03;;;;;;;2.08;0.88;;;;;;;5.96;100.00;96392.59;4992983;28;24431;-73
2022/02/23 01:45:30;;;;;;;1.40;0.80;;;;;;;5.98;100.00;96393.41;4992832;28;24429;-73
2022/02/23 01:47:56;;;;;;;4.03;1.08;;;;;;;5.98;100.00;96389.09;4992983;28;24443;-73
2022/02/23 01:50:23;;;;;;;4.32;0.98;;;;;;;6.00;100.00;96401.88;4993169;28;24428;-73
2022/02/23 01:52:49;;;;;;;1.58;0.88;;;;;;;6.00;100.00;96405.28;4993400;28;24428;-73
2022/02/23 01:55:17;;;;;;;1.67;0.95;;;;;;;5.99;100.00;96398.47;4993071;28;24437;-74
2022/02/23 01:57:43;;;;;;;2.25;0.90;;;;;;;5.98;100.00;96425.09;4992668;28;24969;-73
2022/02/23 02:00:14;;;;;;;3.35;1.08;;;;;;;5.99;100.00;96421.63;4992994;28;24444;-75
2022/02/23 02:02:41;;;;;;;2.00;0.85;;;;;;;6.09;100.00;96416.19;4993078;28;24777;-74
2022/02/23 02:05:08;;;;;;;3.37;1.10;;;;;;;6.09;100.00;96426.47;4992720;28;24441;-75
2022/02/23 02:07:35;;;;;;;4.03;1.08;;;;;;;6.03;100.00;96425.75;4992476;28;24429;-75
2022/02/23 02:10:02;;;;;;;3.03;1.00;;;;;;;6.02;100.00;96429.22;4992557;28;24491;-75
2022/02/23 02:12:29;;;;;;;1.77;1.10;;;;;;;5.97;100.00;96436.28;4992816;28;24427;-75
2022/02/23 02:14:56;;;;;;;1.25;0.88;;;;;;;6.00;100.00;96438.72;4992665;28;24428;-75
2022/02/23 02:17:23;;;;;;;1.47;0.70;;;;;;;5.98;100.00;96439.69;4992492;28;24487;-75
2022/02/23 02:19:49;;;;;;;1.85;0.90;;;;;;;5.97;100.00;96448.25;4992367;28;24445;-75
2022/02/23 02:22:17;;;;;;;1.80;0.90;;;;;;;5.93;100.00;96472.41;4992362;28;24970;-75
2022/02/23 02:24:43;;;;;;;1.52;0.90;;;;;;;5.88;100.00;96490.53;4992120;28;24475;-73
2022/02/23 02:27:12;;;;;;;5.70;0.80;;;;;;;5.13;100.00;96487.75;4992178;28;24421;-73
2022/02/23 02:29:39;;;;;;;2.25;0.80;;;;;;;4.95;100.00;96516.53;4992338;28;24413;-73
2022/02/23 02:32:07;;;;;;;3.10;0.90;;;;;;;4.79;100.00;96514.38;4992445;28;24428;-73
2022/02/23 02:34:34;;;;;;;3.72;1.10;;;;;;;4.63;100.00;96532.81;4992229;28;24417;-73
2022/02/23 02:37:01;;;;;;;3.58;1.05;;;;;;;4.10;100.00;96534.16;4992206;28;24421;-75
2022/02/23 02:39:29;;;;;;;6.70;1.10;;;;;;;4.38;100.00;96545.47;4992305;28;24428;-73
2022/02/23 02:41:56;;;;;;;2.92;1.00;;;;;;;3.75;100.00;96545.28;4992272;28;24429;-73
2022/02/23 02:44:23;;;;;;;3.53;1.00;;;;;;;3.70;100.00;96549.66;4991921;28;24429;-73
2022/02/23 02:46:50;;;;;;;7.07;1.38;;;;;;;3.42;100.00;96554.59;4991809;28;24417;-72
2022/02/23 02:49:17;;;;;;;5.82;1.23;;;;;;;3.69;100.00;96558.22;4991862;28;24436;-73
2022/02/23 02:51:43;;;;;;;5.30;1.15;;;;;;;3.62;100.00;96560.09;4992024;28;24452;-73
2022/02/23 02:54:10;;;;;;;6.80;1.50;;;;;;;3.64;100.00;96552.38;4991528;28;24421;-73
2022/02/23 02:56:39;;;;;;;6.60;1.60;;;;;;;3.58;100.00;96552.50;4991778;28;24417;-73
2022/02/23 02:59:06;;;;;;;4.13;1.48;;;;;;;3.62;100.00;96551.56;4991607;28;24420;-73
2022/02/23 03:01:34;;;;;;;5.43;1.30;;;;;;;3.72;100.00;96560.72;4991871;28;24441;-75
2022/02/23 03:04:01;;;;;;;3.72;1.30;;;;;;;3.61;100.00;96573.78;4991604;28;24444;-75
2022/02/23 03:06:28;;;;;;;5.53;1.30;;;;;;;3.39;100.00;96572.56;4991623;28;24425;-75
2022/02/23 03:08:55;;;;;;;6.55;1.90;;;;;;;3.40;100.00;96576.81;4991493;28;24432;-75
2022/02/23 03:11:22;;;;;;;4.80;1.70;;;;;;;3.59;100.00;96577.25;4991622;28;24421;-74
2022/02/23 03:13:50;;;;;;;3.88;1.42;;;;;;;3.74;100.00;96574.31;4991527;28;24947;-74
2022/02/23 03:16:17;;;;;;;3.75;1.65;;;;;;;4.15;100.00;96571.66;4990951;28;24433;-73
2022/02/23 03:18:44;;;;;;;4.15;1.40;;;;;;;4.31;100.00;96576.38;4991165;28;24432;-73
2022/02/23 03:21:11;;;;;;;4.72;1.40;;;;;;;4.36;100.00;96574.53;4991291;28;24494;-74
2022/02/23 03:23:38;;;;;;;4.93;1.30;;;;;;;4.27;100.00;96579.06;4991391;28;24491;-75
2022/02/23 03:26:06;;;;;;;5.32;1.48;;;;;;;4.14;100.00;96575.94;4991409;28;24421;-74
2022/02/23 03:28:34;;;;;;;8.67;1.87;;;;;;;4.16;100.00;96581.91;4990983;28;24438;-73
2022/02/23 03:31:03;;;;;;;8.60;1.53;;;;;;;4.23;100.00;96583.44;4991420;28;24417;-73
2022/02/23 03:33:32;;;;;;;3.47;1.25;;;;;;;4.12;100.00;96586.25;4991725;28;24862;-73
2022/02/23 03:35:59;;;;;;;3.05;1.25;;;;;;;4.06;100.00;96591.53;4991424;28;24444;-73
2022/02/23 03:38:25;;;;;;;2.20;1.10;;;;;;;4.04;100.00;96593.28;4991037;28;24819;-73
2022/02/23 03:40:52;;;;;;;4.65;1.30;;;;;;;4.02;100.00;96600.16;4991130;28;24453;-73
2022/02/23 03:43:18;;;;;;;2.53;1.10;;;;;;;3.99;100.00;96605.34;4991160;28;24478;-73
2022/02/23 03:45:45;;;;;;;4.38;1.48;;;;;;;3.84;100.00;96608.28;4990948;28;24421;-73
2022/02/23 03:48:13;;;;;;;4.05;1.40;;;;;;;3.75;100.00;96611.91;4990856;28;24484;-73
2022/02/23 03:50:40;;;;;;;4.03;1.20;;;;;;;3.55;100.00;96621.72;4991198;28;24433;-73
2022/02/23 03:53:07;;;;;;;4.03;1.60;;;;;;;3.43;100.00;96624.56;4991114;28;24864;-73
2022/02/23 03:55:35;;;;;;;3.20;1.40;;;;;;;3.43;100.00;96630.53;4991035;28;24425;-73
2022/02/23 03:58:01;;;;;;;3.72;1.27;;;;;;;3.39;100.00;96634.88;4990814;28;24856;-73
2022/02/23 04:00:28;;;;;;;4.25;1.40;;;;;;;3.37;100.00;96635.75;4990912;28;24441;-73
2022/02/23 04:02:54;;;;;;;1.83;0.80;;;;;;;3.32;100.00;96637.59;4991302;28;24424;-75
2022/02/23 04:05:22;;;;;;;3.42;1.30;;;;;;;3.28;100.00;96635.97;4990898;28;24429;-73
2022/02/23 04:07:48;;;;;;;3.22;1.30;;;;;;;3.27;100.00;96640.25;4990918;28;24417;-73
2022/02/23 04:10:19;;;;;;;3.60;1.27;;;;;;;3.36;100.00;96642.59;4991004;28;24513;-74
2022/02/23 04:12:46;;;;;;;2.63;1.02;;;;;;;3.44;100.00;96649.28;4991255;28;24427;-74
2022/02/23 04:15:12;;;;;;;10.90;1.30;;;;;;;3.52;100.00;96652.53;4991055;28;24440;-73
2022/02/23 04:17:39;;;;;;;2.38;1.00;;;;;;;3.58;100.00;96654.97;4990654;28;25126;-74
2022/02/23 04:20:07;;;;;;;2.95;1.20;;;;;;;3.60;100.00;96661.75;4990846;28;24436;-73
2022/02/23 04:22:35;;;;;;;3.10;1.48;;;;;;;3.59;100.00;96667.72;4990857;28;24587;-73
2022/02/23 04:25:01;;;;;;;3.05;1.30;;;;;;;3.57;100.00;96677.19;4990646;28;24432;-72
2022/02/23 04:27:28;;;;;;;3.65;1.10;;;;;;;3.59;100.00;96675.41;4990615;28;24432;-73
2022/02/23 04:29:55;;;;;;;4.00;1.40;;;;;;;3.62;100.00;96683.03;4993060;28;24433;-73
2022/02/23 04:32:21;;;;;;;3.30;1.40;;;;;;;3.51;100.00;96679.03;4994607;28;24413;-73
2022/02/23 04:34:48;;;;;;;9.27;2.30;;;;;;;3.49;100.00;96684.19;4994489;28;24424;-73
2022/02/23 04:37:14;;;;;;;4.80;1.88;;;;;;;3.46;100.00;96697.06;4994432;28;24508;-73
2022/02/23 04:39:42;;;;;;;5.13;1.67;;;;;;;3.44;100.00;96698.78;4994438;28;24425;-73
2022/02/23 04:42:10;;;;;;;4.03;1.50;;;;;;;3.41;100.00;96706.53;4994229;28;24499;-73
2022/02/23 04:44:36;;;;;;;3.92;1.20;;;;;;;3.35;100.00;96704.94;4993972;28;24532;-73
2022/02/23 04:47:03;;;;;;;4.43;1.35;;;;;;;3.39;100.00;96701.44;4994025;28;24420;-73
2022/02/23 04:49:30;;;;;;;5.45;1.67;;;;;;;3.33;100.00;96703.28;4994402;28;24979;-73
2022/02/23 04:51:56;;;;;;;4.55;1.38;;;;;;;3.30;100.00;96711.00;4994025;28;25004;-73
2022/02/23 04:54:23;;;;;;;2.10;0.90;;;;;;;3.38;100.00;96702.31;4993881;28;24974;-73
2022/02/23 04:56:50;;;;;;;3.17;1.40;;;;;;;3.38;100.00;96707.44;4993844;28;24788;-74
2022/02/23 04:59:17;;;;;;;9.15;1.67;;;;;;;3.39;100.00;96708.28;4993846;28;24424;-73
2022/02/23 05:01:43;;;;;;;3.10;1.58;;;;;;;3.41;100.00;96716.75;4994118;28;24443;-73
2022/02/23 05:04:10;;;;;;;8.52;4.15;;;;;;;3.49;100.00;96714.06;4993949;28;24428;-73
2022/02/23 05:06:36;;;;;;;66.20;3.63;;;;;;;3.54;100.00;96705.41;4993692;28;24978;-74
2022/02/23 05:09:03;;;;;;;31.92;2.63;;;;;;;3.51;100.00;96714.88;4993769;28;24436;-73
2022/02/23 05:11:29;;;;;;;24.30;2.22;;;;;;;3.52;100.00;96722.56;4993972;28;24413;-73
2022/02/23 05:13:57;;;;;;;7.22;1.98;;;;;;;3.51;100.00;96709.75;4993435;28;24970;-73
2022/02/23 05:16:23;;;;;;;57.53;3.67;;;;;;;3.34;100.00;96712.66;4993683;28;24416;-73
2022/02/23 05:18:50;;;;;;;25.87;2.70;;;;;;;3.27;100.00;96717.06;4993064;28;24486;-73
2022/02/23 05:21:16;;;;;;;4.60;2.10;;;;;;;3.25;100.00;96726.47;4993188;28;24869;-73
2022/02/23 05:23:43;;;;;;;3.65;2.60;;;;;;;3.26;100.00;96723.03;4993197;28;24573;-72
2022/02/23 05:26:11;;;;;;;4.93;1.80;;;;;;;3.18;100.00;96730.00;4993505;28;24425;-73
2022/02/23 05:28:37;;;;;;;6.18;2.25;;;;;;;3.13;100.00;96726.69;4993437;28;24433;-74
2022/02/23 05:31:05;;;;;;;17.00;2.60;;;;;;;3.17;100.00;96728.31;4993536;28;24460;-74
2022/02/23 05:33:32;;;;;;;4.55;3.17;;;;;;;3.22;100.00;96729.06;4993418;28;24472;-74
2022/02/23 05:36:00;;;;;;;40.63;4.65;;;;;;;3.24;100.00;96740.13;4993409;28;24487;-73
2022/02/23 05:38:26;;;;;;;7.80;3.33;;;;;;;3.21;100.00;96736.78;4992958;28;24427;-74
2022/02/23 05:40:53;;;;;;;24.75;2.47;;;;;;;3.13;100.00;96737.78;4992564;28;24499;-74
2022/02/23 05:43:19;;;;;;;3.80;2.60;;;;;;;3.08;100.00;96739.59;4993137;28;24432;-72
2022/02/23 05:45:46;;;;;;;51.47;5.95;;;;;;;3.11;100.00;96739.50;4992893;28;25010;-73
2022/02/23 05:48:13;;;;;;;13.85;9.45;;;;;;;3.09;100.00;96748.94;4992754;28;25013;-74
2022/02/23 05:50:40;;;;;;;27.15;9.07;;;;;;;3.06;100.00;96753.28;4992856;28;24409;-74
2022/02/23 05:53:06;;;;;;;29.70;12.73;;;;;;;2.92;100.00;96761.16;4992417;28;24491;-74
2022/02/23 05:55:33;;;;;;;21.25;9.95;;;;;;;2.94;100.00;96767.13;4992949;28;24424;-74
2022/02/23 05:57:59;;;;;;;18.08;9.95;;;;;;;2.95;100.00;96770.53;4993111;28;24480;-73
2022/02/23 06:00:26;;;;;;;28.02;8.55;;;;;;;2.88;100.00;96764.66;4993098;28;24452;-73
2022/02/23 06:02:52;;;;;;;95.93;34.08;;;;;;;2.71;100.00;96770.06;4992633;28;24436;-73
2022/02/23 06:05:20;;;;;;;27.25;5.53;;;;;;;2.59;100.00;96776.19;4992490;28;24424;-73
2022/02/23 06:07:46;;;;;;;9.02;2.35;;;;;;;2.67;100.00;96781.22;4992163;28;24818;-73
2022/02/23 06:10:13;;;;;;;14.93;4.60;;;;;;;2.75;100.00;96781.94;4992734;28;24475;-74
2022/02/23 06:12:39;;;;;;;14.20;1.40;;;;;;;3.00;100.00;96789.19;4992740;28;24475;-73
2022/02/23 06:15:07;;;;;;;2.58;1.23;;;;;;;3.11;100.00;96790.69;4992318;28;24495;-73
2022/02/23 06:17:33;;;;;;;6.05;1.55;;;;;;;3.11;100.00;96797.53;4991987;28;24417;-72
2022/02/23 06:20:00;;;;;;;5.60;1.40;;;;;;;2.64;100.00;96801.72;4991643;28;24483;-73
2022/02/23 06:22:29;;;;;;;26.13;2.22;;;;;;;2.56;100.00;96801.84;4990401;28;24453;-72
2022/02/23 06:24:55;;;;;;;22.88;2.03;;;;;;;2.47;100.00;96806.22;4985958;28;24441;-74
2022/02/23 06:27:22;;;;;;;11.85;1.92;;;;;;;2.36;100.00;96812.31;4987770;28;24448;-73
2022/02/23 06:29:48;;;;;;;25.85;2.45;;;;;;;2.22;100.00;96814.22;4990873;28;24444;-74
2022/02/23 06:32:15;;;;;;;6.20;1.95;;;;;;;2.21;100.00;96815.09;4990698;28;24437;-73
2022/02/23 06:34:41;;;;;;;6.35;1.58;;;;;;;2.26;100.00;96812.47;4991093;28;24534;-73
2022/02/23 06:37:08;;;;;;;6.00;1.95;;;;;;;2.31;100.00;96821.78;4991117;28;24425;-73
2022/02/23 06:39:39;;;;;;;38.85;2.70;;;;;;;2.43;100.00;96813.94;4991084;28;24487;-73
2022/02/23 06:42:06;;;;;;;24.13;2.22;;;;;;;2.30;100.00;96824.34;4990554;28;24548;-73
2022/02/23 06:44:33;;;;;;;22.00;2.60;;;;;;;2.17;100.00;96821.97;4990627;28;24445;-71
2022/02/23 06:47:01;;;;;;;15.87;2.43;;;;;;;2.18;100.00;96822.78;4990460;28;24487;-73
2022/02/23 06:49:27;;;;;;;9.15;2.53;;;;;;;2.22;100.00;96827.00;4991986;28;24523;-73
2022/02/23 06:51:58;;;;;;;46.00;3.03;;;;;;;2.27;100.00;96832.91;4992115;28;24491;-73
2022/02/23 06:54:25;;;;;;;10.23;2.20;;;;;;;2.49;100.00;96830.91;4993092;28;24874;-73
2022/02/23 06:56:53;;;;;;;10.15;1.85;;;;;;;2.94;100.00;96836.22;4992637;28;24428;-73
2022/02/23 06:59:19;;;;;;;18.35;2.15;;;;;;;2.62;100.00;96841.81;4992307;28;24973;-75
2022/02/23 07:01:46;;;;;;;16.25;2.58;;;;;;;2.37;100.00;96841.28;4991859;28;24449;-75
2022/02/23 07:04:12;;;;;;;26.30;2.20;;;;;;;2.61;100.00;96848.63;4991874;28;24429;-73
2022/02/23 07:06:41;;;;;;;5.75;1.88;;;;;;;2.43;100.00;96854.84;4991679;28;24471;-74
2022/02/23 07:09:07;;;;;;;9.38;2.30;;;;;;;2.46;100.00;96853.97;4991559;28;24456;-74
2022/02/23 07:11:34;;;;;;;14.10;2.13;;;;;;;2.58;100.00;96861.47;4991600;28;24412;-74
2022/02/23 07:14:03;;;;;;;3.65;1.80;;;;;;;2.32;100.00;96864.38;4991433;28;24859;-73
2022/02/23 07:16:30;;;;;;;3.07;1.80;;;;;;;2.48;100.00;96859.88;4990965;28;24519;-74
2022/02/23 07:18:57;;;;;;;12.38;1.95;;;;;;;2.36;100.00;96863.47;4991407;28;24417;-73
2022/02/23 07:21:23;;;;;;;6.72;1.88;;;;;;;2.24;100.00;96871.28;4991671;28;24456;-75
2022/02/23 07:23:50;;;;;;;29.30;2.40;;;;;;;2.37;100.00;96865.19;4991441;28;24457;-74
2022/02/23 07:26:17;;;;;;;18.17;1.80;;;;;;;2.37;100.00;96879.63;4991369;28;24471;-74
2022/02/23 07:28:44;;;;;;;11.93;1.80;;;;;;;2.36;100.00;96883.06;4991271;28;24499;-74
2022/02/23 07:31:14;;;;;;;17.93;1.80;;;;;;;2.62;100.00;96885.28;4991404;28;24432;-75
2022/02/23 07:33:41;;;;;;;5.37;1.60;;;;;;;2.49;100.00;96886.34;4991011;28;25204;-75
2022/02/23 07:36:07;;;;;;;19.35;2.00;;;;;;;2.46;100.00;96889.75;4991290;28;24467;-75
2022/02/23 07:38:36;;;;;;;13.13;2.40;;;;;;;2.35;100.00;96886.50;4991042;28;24425;-74
2022/02/23 07:41:03;;;;;;;27.13;2.47;;;;;;;2.31;100.00;96897.63;4991067;28;24429;-75
2022/02/23 07:43:29;;;;;;;41.28;2.88;;;;;;;2.36;100.00;96889.03;4991096;28;24421;-74
2022/02/23 07:45:58;;;;;;;40.80;3.53;;;;;;;2.58;100.00;96894.72;4991147;28;24553;-76
2022/02/23 07:48:26;;;;;;;16.88;2.53;;;;;;;2.53;100.00;96898.22;4991051;28;24525;-75
2022/02/23 07:50:52;;;;;;;22.17;2.50;;;;;;;2.56;100.00;96898.13;4991102;28;24428;-75
2022/02/23 07:53:18;;;;;;;20.23;2.55;;;;;;;2.66;100.00;96898.00;4990743;28;24413;-75
2022/02/23 07:55:45;;;;;;;34.70;3.03;;;;;;;2.66;100.00;96898.00;4992458;28;24437;-74
2022/02/23 07:58:12;;;;;;;39.33;3.17;;;;;;;2.80;100.00;96897.81;4990395;28;24966;-71
2022/02/23 08:00:39;;;;;;;70.82;3.30;;;;;;;2.78;100.00;96897.00;4990805;28;24951;-71
2022/02/23 08:03:06;;;;;;;27.80;1.88;;;;;;;2.86;100.00;96902.84;4991084;28;24826;-73
2022/02/23 08:05:34;;;;;;;16.70;2.17;;;;;;;2.96;100.00;96906.13;4994924;28;24479;-73
2022/02/23 08:08:00;;;;;;;65.10;3.03;;;;;;;2.88;100.00;96908.78;4994485;28;24544;-72
2022/02/23 08:10:27;;;;;;;13.77;1.75;;;;;;;2.93;100.00;96911.31;4990141;28;24432;-73
2022/02/23 08:12:55;;;;;;;28.25;2.67;;;;;;;3.06;100.00;96923.03;4993728;28;24441;-75
2022/02/23 08:20:52;;;;;;;16.40;2.58;;;;;;;3.04;100.00;96913.69;4994624;28;24423;-74
2022/02/23 08:23:19;;;;;;;42.97;3.20;;;;;;;3.05;100.00;96910.28;4993948;28;24795;-74
2022/02/23 08:25:45;;;;;;;16.17;2.50;;;;;;;3.10;100.00;96904.19;4985689;28;24437;-74
2022/02/23 08:28:12;;;;;;;58.08;3.55;;;;;;;3.17;100.00;96907.50;4994272;28;24428;-74
2022/02/23 08:30:38;;;;;;;26.73;3.03;;;;;;;3.23;100.00;96907.44;4994354;28;24443;-74
2022/02/23 08:33:05;;;;;;;22.00;3.13;;;;;;;3.28;100.00;96913.31;4993656;28;25013;-74
2022/02/23 08:35:32;;;;;;;8.32;2.70;;;;;;;3.12;100.00;96910.16;4994170;28;24437;-73
2022/02/23 08:38:00;;;;;;;4.97;3.10;;;;;;;3.15;100.00;96919.47;4994288;28;24528;-72
2022/02/23 08:40:27;;;;;;;5.55;2.60;;;;;;;3.25;100.00;96910.78;4993753;28;24471;-73
2022/02/23 08:42:54;;;;;;;4.00;2.42;;;;;;;3.39;100.00;96901.19;4994073;28;24545;-73
2022/02/23 08:45:21;;;;;;;5.07;2.33;;;;;;;3.47;100.00;96897.66;4994249;28;24436;-74
2022/02/23 08:47:47;;;;;;;4.05;2.50;;;;;;;3.45;100.00;96896.81;4993893;28;24437;-74
2022/02/23 08:50:14;;;;;;;18.38;2.70;;;;;;;3.39;100.00;96896.06;4994157;28;24428;-73
2022/02/23 08:52:40;;;;;;;10.80;2.40;;;;;;;3.39;100.00;96887.53;4993611;28;24436;-74
2022/02/23 08:55:09;;;;;;;4.88;2.70;;;;;;;3.53;100.00;96898.41;4993582;28;24484;-74
2022/02/23 08:57:36;;;;;;;2.57;2.30;;;;;;;3.75;100.00;96898.88;4993523;28;24504;-74
2022/02/23 09:00:04;;;;;;;2.77;2.33;;;;;;;3.92;100.00;96901.09;4993815;28;24432;-74
2022/02/23 09:02:30;;;;;;;8.13;2.22;;;;;;;3.79;100.00;96897.94;4992777;28;24456;-73
2022/02/23 09:04:56;;;;;;;30.55;3.00;;;;;;;3.61;100.00;96898.25;4987459;28;24982;-73
2022/02/23 09:07:23;;;;;;;12.18;2.50;;;;;;;3.80;100.00;96909.03;4974211;28;24432;-76
2022/02/23 09:09:49;;;;;;;13.55;3.05;;;;;;;3.90;100.00;96908.00;4974238;28;24424;-73
2022/02/23 09:12:17;;;;;;;30.73;2.90;;;;;;;3.72;100.00;96900.63;4987282;28;24859;-73
2022/02/23 09:14:44;;;;;;;19.90;3.10;;;;;;;3.76;100.00;96902.28;4978078;28;24992;-73
2022/02/23 09:17:10;;;;;;;3.78;2.47;;;;;;;3.90;100.00;96900.31;4978670;28;24534;-74
2022/02/23 09:19:37;;;;;;;6.53;2.75;;;;;;;3.91;100.00;96894.31;4993179;28;24424;-74
2022/02/23 09:22:04;;;;;;;7.20;3.08;;;;;;;4.13;100.00;96894.75;4992901;28;24452;-74
2022/02/23 09:24:30;;;;;;;4.13;3.13;;;;;;;4.43;100.00;96895.84;4985410;28;24440;-73
2022/02/23 09:26:57;;;;;;;10.40;3.10;;;;;;;4.48;100.00;96891.44;4991878;28;24437;-74
2022/02/23 09:29:26;;;;;;;8.43;3.60;;;;;;;4.33;100.00;96892.63;4993246;28;24423;-74
2022/02/23 09:31:53;;;;;;;12.73;3.33;;;;;;;4.20;100.00;96882.66;4990388;28;25060;-74
2022/02/23 09:34:23;;;;;;;24.23;3.40;;;;;;;4.16;100.00;96886.16;4974152;28;24476;-77
2022/02/23 09:36:50;;;;;;;22.52;3.28;;;;;;;4.09;100.00;96877.72;4974026;28;24457;-76
2022/02/23 09:39:16;;;;;;;9.47;3.40;;;;;;;4.23;100.00;96880.88;4974167;28;24538;-75
2022/02/23 09:41:45;;;;;;;7.90;3.37;;;;;;;4.27;100.00;96881.66;4983963;28;24830;-75
2022/02/23 09:44:12;;;;;;;9.80;3.30;;;;;;;4.34;100.00;96885.78;4993349;28;24431;-75
2022/02/23 09:46:40;;;;;;;14.70;3.85;;;;;;;4.50;100.00;96887.16;4987475;28;24480;-74
2022/02/23 09:49:07;;;;;;;18.20;4.05;;;;;;;4.48;100.00;96891.44;4973671;28;24444;-75
2022/02/23 09:51:33;;;;;;;4.35;3.38;;;;;;;4.70;100.00;96891.00;4975820;28;24430;-73
2022/02/23 09:53:59;;;;;;;3.88;3.08;;;;;;;4.97;100.00;96894.66;4988388;28;24444;-74
2022/02/23 09:56:26;;;;;;;5.85;3.58;;;;;;;5.11;100.00;96890.06;4981546;28;24437;-74
2022/02/23 09:58:54;;;;;;;13.70;5.70;;;;;;;5.47;100.00;96879.81;4973493;28;24429;-74
2022/02/23 10:01:23;;;;;;;8.48;6.05;;;;;;;5.44;100.00;96877.31;4973522;28;24958;-73
2022/02/23 10:03:51;;;;;;;6.15;4.85;;;;;;;5.63;100.00;96883.66;4992496;28;24516;-74
2022/02/23 10:06:27;;;;;;;6.57;5.38;;;;;;;5.85;100.00;96883.94;4993310;28;24428;-74
2022/02/23 10:09:01;;;;;;;4.80;4.30;;;;;;;5.77;100.00;96893.59;4992761;28;24428;-74
2022/02/23 10:11:28;;;;;;;6.03;4.68;;;;;;;5.94;100.00;96891.47;4992159;28;24468;-74
2022/02/23 10:13:56;;;;;;;5.75;4.55;;;;;;;6.00;100.00;96882.72;4992651;28;24516;-75
2022/02/23 10:16:26;;;;;;;9.55;7.63;;;;;;;6.19;100.00;96888.22;4992770;28;24771;-73
2022/02/23 10:19:07;;;;;;;9.25;4.93;;;;;;;6.27;100.00;96876.00;4991083;28;25001;-73
2022/02/23 10:21:45;;;;;;;7.97;5.90;;;;;;;6.51;100.00;96875.28;4991916;28;24492;-73
2022/02/23 10:24:26;;;;;;;6.82;5.07;;;;;;;6.37;100.00;96880.00;4977196;28;24464;-72
2022/02/23 10:26:58;;;;;;;5.87;5.07;;;;;;;6.51;100.00;96887.31;4991560;28;25000;-73
2022/02/23 10:29:29;;;;;;;5.82;5.22;;;;;;;6.74;100.00;96886.66;4992148;28;24973;-72
2022/02/23 10:31:56;;;;;;;7.57;4.85;;;;;;;6.58;100.00;96888.00;4991358;28;24488;-72
2022/02/23 10:34:25;;;;;;;6.72;4.78;;;;;;;6.49;100.00;96882.22;4974350;28;24594;-73
2022/02/23 10:36:59;;;;;;;5.05;4.05;;;;;;;6.85;100.00;96882.00;4972668;28;24520;-73
2022/02/23 10:39:38;;;;;;;4.97;4.43;;;;;;;6.67;100.00;96878.25;4972722;28;24413;-73
2022/02/23 10:42:06;;;;;;;7.97;4.22;;;;;;;6.76;100.00;96882.31;4983138;28;24520;-71
2022/02/23 10:44:33;;;;;;;5.25;3.78;;;;;;;7.16;100.00;96881.09;4991835;28;24823;-75
2022/02/23 10:47:01;;;;;;;6.20;4.47;;;;;;;7.42;100.00;96878.50;4987578;28;24428;-74
2022/02/23 10:49:28;;;;;;;4.43;3.70;;;;;;;7.17;100.00;96881.03;4990045;28;24840;-76
2022/02/23 10:52:06;;;;;;;5.22;3.70;;;;;;;7.31;100.00;96875.44;4991605;28;24487;-74
2022/02/23 10:54:33;;;;;;;5.75;3.75;;;;;;;7.37;100.00;96877.81;4991963;28;21283;-74
2022/02/23 10:57:00;;;;;;;5.33;4.33;;;;;;;7.57;100.00;96884.06;4969784;28;24437;-74
2022/02/23 10:59:26;;;;;;;5.70;3.80;;;;;;;7.82;100.00;96884.06;4972568;28;24499;-74
2022/02/23 11:01:54;;;;;;;6.38;2.85;;;;;;;8.05;100.00;96878.13;4976348;28;24448;-74
2022/02/23 11:04:21;;;;;;;5.45;2.97;;;;;;;8.31;100.00;96877.22;4991562;28;21162;-74
2022/02/23 11:06:51;;;;;;;5.60;3.70;;;;;;;8.32;100.00;96871.13;4991729;28;20882;-74
2022/02/23 11:09:18;;;;;;;13.02;2.70;;;;;;;7.90;100.00;96864.03;4991501;28;24433;-74
2022/02/23 11:11:47;;;;;;;6.35;2.28;;;;;;;8.18;100.00;96867.31;4990709;28;24495;-74
2022/02/23 11:14:15;;;;;;;3.58;1.88;;;;;;;8.54;100.00;96860.91;4991745;28;21142;-74
2022/02/23 11:16:41;;;;;;;3.33;1.83;;;;;;;8.62;100.00;96864.03;4988881;28;20806;-74
2022/02/23 11:19:08;;;;;;;4.90;2.22;;;;;;;8.46;100.00;96856.03;4967148;28;20770;-74
2022/02/23 11:21:37;;;;;;;4.03;2.10;;;;;;;8.74;100.00;96866.13;4973772;28;20761;-74
2022/02/23 11:24:08;;;;;;;6.32;1.98;;;;;;;8.55;100.00;96857.41;4990889;28;21343;-74
2022/02/23 11:26:37;;;;;;;3.10;1.73;;;;;;;8.25;100.00;96847.28;4990911;28;20740;-75
2022/02/23 11:29:10;;;;;;;4.13;1.73;;;;;;;8.25;100.00;96855.88;4991546;28;21259;-75
2022/02/23 11:31:38;;;;;;;3.47;2.05;;;;;;;8.16;100.00;96856.22;4990985;28;20719;-74
2022/02/23 11:34:05;;;;;;;6.18;2.60;;;;;;;8.25;100.00;96850.69;4990945;28;24425;-74
2022/02/23 11:36:34;;;;;;;7.20;2.43;;;;;;;8.13;100.00;96846.00;4991582;28;21122;-74